Time;durP1;ratioP1;P1;durP2;ratioP2;P2;SDS_P1;SDS_P2;PMS_P1;PMS_P2;Temp;Humidity;BMP_temperature;BMP_pressure;BME280_temperature;BME280_humidity;BME280_pressure;Samples;Min_cycle;Max_cycle;Signal;HPM_P1;HPM_P2
2023/06/17 00:01:50;;;;;;;18.63;12.50;;;17.50;99.90;;;;;;5070796;28;20405;-71
2023/06/17 00:04:16;;;;;;;16.75;12.57;;;17.50;99.90;;;;;;5032529;28;20076;-67
2023/06/17 00:06:42;;;;;;;20.02;12.48;;;17.50;99.90;;;;;;5063593;28;20397;-67
2023/06/17 00:09:08;;;;;;;20.98;12.25;;;17.40;99.90;;;;;;5054078;28;20048;-68
2023/06/17 00:11:33;;;;;;;16.15;13.05;;;17.40;99.90;;;;;;5074845;28;20458;-67
2023/06/17 00:14:00;;;;;;;19.52;12.13;;;17.40;99.90;;;;;;5051268;28;20052;-68
2023/06/17 00:16:26;;;;;;;17.92;12.20;;;17.40;99.90;;;;;;5074169;28;20048;-69
2023/06/17 00:18:53;;;;;;;17.33;12.93;;;17.40;99.90;;;;;;5068123;28;20128;-71
2023/06/17 00:21:19;;;;;;;24.70;13.32;;;17.40;99.90;;;;;;5074589;28;20055;-67
2023/06/17 00:23:45;;;;;;;18.45;13.82;;;17.40;99.90;;;;;;5056569;28;20099;-68
2023/06/17 00:26:11;;;;;;;18.17;12.13;;;17.50;99.90;;;;;;5035173;28;20043;-67
2023/06/17 00:28:36;;;;;;;18.70;13.35;;;17.50;99.90;;;;;;5069966;28;20075;-67
2023/06/17 00:31:02;;;;;;;19.77;12.90;;;17.50;99.90;;;;;;5053597;28;20052;-68
2023/06/17 00:33:28;;;;;;;18.63;12.38;;;17.50;99.90;;;;;;5073956;28;20047;-67
2023/06/17 00:35:53;;;;;;;20.27;13.27;;;17.50;99.90;;;;;;5052377;28;20107;-70
2023/06/17 00:38:19;;;;;;;19.40;12.93;;;17.50;99.90;;;;;;5025451;28;20079;-67
2023/06/17 00:40:45;;;;;;;19.15;14.68;;;17.50;99.90;;;;;;5056449;28;20492;-68
2023/06/17 00:43:11;;;;;;;22.42;14.63;;;17.50;99.90;;;;;;5055689;28;20529;-67
2023/06/17 00:45:39;;;;;;;16.15;11.05;;;17.50;99.90;;;;;;5050315;28;20146;-67
2023/06/17 00:48:10;;;;;;;27.30;14.55;;;17.50;99.90;;;;;;5035808;28;20464;-67
2023/06/17 00:50:36;;;;;;;22.50;14.68;;;17.60;99.90;;;;;;5046402;28;20036;-67
2023/06/17 00:53:03;;;;;;;24.10;14.57;;;17.60;99.90;;;;;;5053509;28;20041;-67
2023/06/17 00:55:30;;;;;;;21.30;14.18;;;17.50;99.90;;;;;;5036302;28;20120;-67
2023/06/17 00:57:57;;;;;;;25.20;13.25;;;17.50;99.90;;;;;;5044789;28;20055;-67
2023/06/17 01:00:23;;;;;;;21.75;13.88;;;17.50;99.90;;;;;;5054035;28;20049;-67
2023/06/17 01:02:49;;;;;;;19.20;13.55;;;17.50;99.90;;;;;;5036463;28;20049;-67
2023/06/17 01:05:17;;;;;;;21.55;13.05;;;17.50;99.90;;;;;;5035455;28;20132;-70
2023/06/17 01:08:20;;;;;;;20.10;13.27;;;17.50;99.90;;;;;;5054229;28;20063;-67
2023/06/17 01:11:10;;;;;;;19.85;12.27;;;17.50;99.90;;;;;;5016302;28;20490;-67
2023/06/17 01:13:37;;;;;;;20.38;11.32;;;17.50;99.90;;;;;;5036262;28;20049;-67
2023/06/17 01:16:04;;;;;;;21.35;12.60;;;17.50;99.90;;;;;;5048157;28;20073;-68
2023/06/17 01:18:31;;;;;;;19.23;12.13;;;17.50;99.90;;;;;;5035314;28;20090;-67
2023/06/17 01:20:58;;;;;;;19.42;11.63;;;17.40;99.90;;;;;;5019332;28;20146;-67
2023/06/17 01:23:31;;;;;;;17.73;11.07;;;17.50;99.90;;;;;;5052916;28;20134;-67
2023/06/17 01:25:57;;;;;;;17.60;11.45;;;17.50;99.90;;;;;;5035819;28;20053;-67
2023/06/17 01:28:24;;;;;;;15.77;11.90;;;17.50;99.90;;;;;;5053505;28;20526;-67
2023/06/17 01:30:56;;;;;;;20.13;12.95;;;17.40;99.90;;;;;;5068966;28;20437;-67
2023/06/17 01:33:23;;;;;;;20.75;12.10;;;17.40;99.90;;;;;;5054725;28;20048;-67
2023/06/17 01:36:02;;;;;;;20.88;12.88;;;17.30;99.90;;;;;;5073308;28;20091;-67
2023/06/17 01:38:35;;;;;;;20.42;12.95;;;17.20;99.90;;;;;;5050552;28;20040;-67
2023/06/17 01:41:06;;;;;;;28.30;13.33;;;17.10;99.90;;;;;;5055148;28;20059;-67
2023/06/17 01:43:34;;;;;;;18.45;12.50;;;17.10;99.90;;;;;;5054347;28;20042;-67
2023/06/17 01:46:01;;;;;;;15.95;12.63;;;17.10;99.90;;;;;;5038759;28;20041;-68
2023/06/17 01:48:27;;;;;;;21.50;13.90;;;17.10;99.90;;;;;;5034151;28;20060;-66
2023/06/17 01:50:53;;;;;;;21.15;14.20;;;17.10;99.90;;;;;;5035424;28;20049;-67
2023/06/17 01:53:19;;;;;;;22.73;13.55;;;17.00;99.90;;;;;;5034981;28;20049;-67
2023/06/17 01:55:45;;;;;;;18.30;13.20;;;17.00;99.90;;;;;;5052947;28;20051;-67
2023/06/17 01:58:10;;;;;;;19.63;14.43;;;17.00;99.90;;;;;;5051559;28;20062;-67
2023/06/17 02:00:36;;;;;;;20.02;13.77;;;17.00;99.90;;;;;;5057688;28;20037;-68
2023/06/17 02:03:02;;;;;;;19.15;14.10;;;17.00;99.90;;;;;;5034872;28;20049;-67
2023/06/17 02:05:27;;;;;;;22.05;14.82;;;17.00;99.90;;;;;;5052250;28;20056;-67
2023/06/17 02:07:55;;;;;;;17.05;14.30;;;16.90;99.90;;;;;;5034393;28;20049;-67
2023/06/17 02:10:21;;;;;;;22.30;14.00;;;16.90;99.90;;;;;;5052877;28;20536;-67
2023/06/17 02:12:47;;;;;;;20.98;14.25;;;16.90;99.90;;;;;;5034046;28;20045;-67
2023/06/17 02:15:12;;;;;;;22.95;14.50;;;16.90;99.90;;;;;;5033877;28;20041;-68
2023/06/17 02:17:38;;;;;;;18.08;13.18;;;16.90;99.90;;;;;;5034753;28;20398;-67
2023/06/17 02:20:06;;;;;;;21.00;14.02;;;16.90;99.90;;;;;;5033989;28;20120;-68
2023/06/17 02:22:32;;;;;;;20.33;13.90;;;16.80;99.90;;;;;;5041942;28;20545;-67
2023/06/17 02:24:58;;;;;;;22.15;14.65;;;16.90;99.90;;;;;;5018202;28;20138;-67
2023/06/17 02:27:23;;;;;;;22.33;14.45;;;16.80;99.90;;;;;;5051731;28;20064;-67
2023/06/17 02:29:49;;;;;;;21.35;14.43;;;16.90;99.90;;;;;;5051152;28;20052;-67
2023/06/17 02:32:15;;;;;;;21.52;13.98;;;16.80;99.90;;;;;;5034066;28;20048;-67
2023/06/17 02:34:42;;;;;;;23.27;14.30;;;16.80;99.90;;;;;;5018156;28;20063;-67
2023/06/17 02:37:08;;;;;;;21.55;14.52;;;16.90;99.90;;;;;;5034425;28;20079;-67
2023/06/17 02:39:34;;;;;;;18.30;14.25;;;16.90;99.90;;;;;;5051223;28;20052;-69
2023/06/17 02:41:59;;;;;;;18.95;15.23;;;17.00;99.90;;;;;;5036791;28;20063;-67
2023/06/17 02:44:25;;;;;;;21.05;14.98;;;17.00;99.90;;;;;;5033950;28;20077;-67
2023/06/17 02:46:51;;;;;;;21.80;15.48;;;16.90;99.90;;;;;;5034349;28;20055;-66
2023/06/17 02:49:17;;;;;;;19.88;15.40;;;16.90;99.90;;;;;;5032900;28;20045;-67
2023/06/17 02:51:42;;;;;;;19.90;15.68;;;16.90;99.90;;;;;;5033837;28;20092;-67
2023/06/17 02:54:08;;;;;;;22.48;15.73;;;16.80;99.90;;;;;;5051983;28;20084;-66
2023/06/17 02:56:34;;;;;;;23.77;15.95;;;16.80;99.90;;;;;;5051272;28;20229;-66
2023/06/17 02:59:00;;;;;;;20.83;16.33;;;16.80;99.90;;;;;;5017319;28;20067;-66
2023/06/17 03:01:26;;;;;;;21.23;16.33;;;16.80;99.90;;;;;;5033029;28;20552;-66
2023/06/17 03:03:55;;;;;;;21.67;16.85;;;16.70;99.90;;;;;;5061147;28;20045;-66
2023/06/17 03:06:22;;;;;;;23.33;16.05;;;16.80;99.90;;;;;;5052023;28;20554;-66
2023/06/17 03:08:48;;;;;;;21.10;16.83;;;16.80;99.90;;;;;;5030488;28;20058;-66
2023/06/17 03:11:14;;;;;;;24.02;16.63;;;16.80;99.90;;;;;;5013585;28;20493;-67
2023/06/17 03:13:40;;;;;;;22.17;16.83;;;16.80;99.90;;;;;;5031878;28;20053;-67
2023/06/17 03:16:06;;;;;;;21.77;17.55;;;16.80;99.90;;;;;;5013898;28;20095;-67
2023/06/17 03:18:31;;;;;;;23.02;18.30;;;16.80;99.90;;;;;;5029784;28;20049;-66
2023/06/17 03:20:57;;;;;;;27.42;20.33;;;16.70;99.90;;;;;;5031553;28;20495;-66
2023/06/17 03:23:24;;;;;;;25.55;20.13;;;16.70;99.90;;;;;;5045800;28;20103;-67
2023/06/17 03:25:51;;;;;;;25.85;19.73;;;16.70;99.90;;;;;;5041299;28;20138;-66
2023/06/17 03:28:17;;;;;;;26.52;21.77;;;16.60;99.90;;;;;;5030199;28;20487;-66
2023/06/17 03:30:43;;;;;;;25.58;20.17;;;16.60;99.90;;;;;;5029912;28;20124;-67
2023/06/17 03:33:09;;;;;;;24.20;20.17;;;16.60;99.90;;;;;;5031023;28;20135;-67
2023/06/17 03:35:35;;;;;;;26.05;19.67;;;16.50;99.90;;;;;;5038079;28;20060;-68
2023/06/17 03:38:03;;;;;;;25.25;20.17;;;16.50;99.90;;;;;;5030072;28;20132;-66
2023/06/17 03:40:28;;;;;;;26.27;21.27;;;16.50;99.90;;;;;;5021060;28;20050;-68
2023/06/17 03:42:54;;;;;;;27.25;20.30;;;16.50;99.90;;;;;;5028595;28;20055;-66
2023/06/17 03:45:20;;;;;;;26.70;20.08;;;16.60;99.90;;;;;;5036487;28;20045;-69
2023/06/17 03:47:47;;;;;;;28.08;20.58;;;16.50;99.90;;;;;;5033735;28;20499;-67
2023/06/17 03:50:13;;;;;;;25.52;20.38;;;16.50;99.90;;;;;;5035301;28;20048;-66
2023/06/17 03:52:39;;;;;;;24.30;20.00;;;16.50;99.90;;;;;;5032889;28;20038;-67
2023/06/17 03:55:05;;;;;;;28.50;19.50;;;16.50;99.90;;;;;;5033430;28;20041;-67
2023/06/17 03:57:31;;;;;;;27.42;18.95;;;16.50;99.90;;;;;;5032939;28;20049;-67
2023/06/17 03:59:56;;;;;;;25.85;19.58;;;16.50;99.90;;;;;;5034380;28;20545;-66
2023/06/17 04:02:23;;;;;;;24.05;18.20;;;16.50;99.90;;;;;;5034849;28;20106;-68
2023/06/17 04:04:52;;;;;;;26.90;17.98;;;16.50;99.90;;;;;;5033504;28;20041;-66
2023/06/17 04:07:19;;;;;;;23.65;18.30;;;16.50;99.90;;;;;;5034475;28;20068;-65
2023/06/17 04:09:45;;;;;;;25.08;17.40;;;16.50;99.90;;;;;;5049363;28;20045;-68
2023/06/17 04:12:11;;;;;;;23.25;16.73;;;16.50;99.90;;;;;;5034714;28;20053;-66
2023/06/17 04:14:37;;;;;;;24.90;16.58;;;16.50;99.90;;;;;;5032607;28;20132;-66
2023/06/17 04:17:03;;;;;;;22.55;16.88;;;16.50;99.90;;;;;;5034367;28;20057;-66
2023/06/17 04:19:31;;;;;;;26.90;16.88;;;16.40;99.90;;;;;;5034189;28;20056;-66
2023/06/17 04:21:57;;;;;;;22.25;17.15;;;16.40;99.90;;;;;;5017429;28;20045;-66
2023/06/17 04:24:23;;;;;;;24.83;17.13;;;16.40;99.90;;;;;;5033278;28;20487;-67
2023/06/17 04:26:52;;;;;;;23.98;16.70;;;16.40;99.90;;;;;;5017569;28;20053;-66
2023/06/17 04:29:18;;;;;;;25.90;16.48;;;16.40;99.90;;;;;;5017559;28;20403;-66
2023/06/17 04:31:46;;;;;;;23.73;16.27;;;16.40;99.90;;;;;;5032929;28;20120;-69
2023/06/17 04:34:21;;;;;;;21.95;16.10;;;16.50;99.90;;;;;;5036065;28;20049;-66
2023/06/17 04:36:56;;;;;;;19.67;15.88;;;16.50;99.90;;;;;;5034133;28;20041;-67
2023/06/17 04:39:23;;;;;;;22.38;16.50;;;16.50;99.90;;;;;;5034666;28;20045;-67
2023/06/17 04:41:50;;;;;;;20.83;16.38;;;16.50;99.90;;;;;;5039846;28;20223;-66
2023/06/17 04:44:16;;;;;;;24.10;17.73;;;16.40;99.90;;;;;;5034191;28;20037;-67
2023/06/17 04:46:43;;;;;;;22.00;17.05;;;16.40;99.90;;;;;;5025191;28;20123;-66
2023/06/17 04:49:10;;;;;;;23.15;17.50;;;16.40;99.90;;;;;;5035150;28;20051;-66
2023/06/17 04:51:38;;;;;;;24.90;18.20;;;16.40;99.90;;;;;;5032835;28;20049;-67
2023/06/17 04:54:07;;;;;;;22.23;18.80;;;16.40;99.90;;;;;;5033053;28;20049;-67
2023/06/17 04:56:33;;;;;;;26.27;19.27;;;16.30;99.90;;;;;;5033484;28;20084;-67
2023/06/17 04:58:59;;;;;;;26.20;18.27;;;16.40;99.90;;;;;;5033488;28;20163;-67
2023/06/17 05:01:25;;;;;;;28.05;19.00;;;16.30;99.90;;;;;;5033075;28;20116;-66
2023/06/17 05:03:50;;;;;;;26.40;19.80;;;16.40;99.90;;;;;;5033569;28;20067;-67
2023/06/17 05:06:16;;;;;;;23.85;20.15;;;16.40;99.90;;;;;;5033609;28;20453;-67
2023/06/17 05:08:42;;;;;;;31.42;20.38;;;16.40;99.90;;;;;;5034768;28;20057;-66
2023/06/17 05:11:08;;;;;;;30.00;19.27;;;16.40;99.90;;;;;;5053638;28;20044;-67
2023/06/17 05:13:33;;;;;;;25.48;18.77;;;16.40;99.90;;;;;;5035552;28;20186;-70
2023/06/17 05:15:59;;;;;;;22.83;18.27;;;16.40;99.90;;;;;;5035520;28;20072;-67
2023/06/17 05:18:25;;;;;;;27.60;21.00;;;16.50;99.90;;;;;;5053572;28;20033;-67
2023/06/17 05:20:51;;;;;;;27.13;21.05;;;16.50;99.90;;;;;;5036546;28;20040;-67
2023/06/17 05:23:16;;;;;;;26.90;21.83;;;16.50;99.90;;;;;;5053591;28;20047;-67
2023/06/17 05:25:42;;;;;;;28.20;21.88;;;16.40;99.90;;;;;;5035237;28;20179;-67
2023/06/17 05:28:10;;;;;;;26.30;20.88;;;16.50;99.90;;;;;;5035839;28;20055;-67
2023/06/17 05:30:38;;;;;;;28.77;21.30;;;16.50;99.90;;;;;;5035210;28;20380;-70
2023/06/17 05:33:04;;;;;;;27.48;21.15;;;16.50;99.90;;;;;;5044443;28;20049;-66
2023/06/17 05:35:30;;;;;;;26.42;18.02;;;16.50;99.90;;;;;;5035336;28;20047;-66
2023/06/17 05:37:56;;;;;;;23.13;16.42;;;16.60;99.90;;;;;;5052177;28;20688;-66
2023/06/17 05:40:21;;;;;;;24.73;15.70;;;16.60;99.90;;;;;;5034899;28;20041;-66
2023/06/17 05:42:47;;;;;;;20.25;15.35;;;16.60;99.90;;;;;;5051125;28;20052;-66
2023/06/17 05:45:13;;;;;;;19.23;14.55;;;16.60;99.90;;;;;;5053525;28;20051;-66
2023/06/17 05:47:38;;;;;;;20.15;14.57;;;16.60;99.90;;;;;;5034140;28;20044;-69
2023/06/17 05:50:05;;;;;;;18.92;14.27;;;16.60;99.90;;;;;;5010212;28;20475;-66
2023/06/17 05:52:30;;;;;;;16.55;13.15;;;16.60;99.90;;;;;;5036505;28;20596;-66
2023/06/17 05:54:56;;;;;;;17.55;13.20;;;16.70;99.90;;;;;;5034773;28;20040;-66
2023/06/17 05:57:22;;;;;;;18.52;13.40;;;16.70;99.90;;;;;;5034878;28;20040;-67
2023/06/17 05:59:47;;;;;;;20.77;13.05;;;16.60;99.90;;;;;;5034687;28;20037;-66
2023/06/17 06:02:13;;;;;;;21.90;13.40;;;16.70;99.90;;;;;;5034917;28;20052;-67
2023/06/17 06:04:39;;;;;;;16.83;12.73;;;16.70;99.90;;;;;;5052390;28;20120;-70
2023/06/17 06:07:05;;;;;;;23.20;12.88;;;16.80;99.90;;;;;;5051932;28;20092;-66
2023/06/17 06:09:30;;;;;;;16.35;11.95;;;16.80;99.90;;;;;;5034013;28;20053;-66
2023/06/17 06:11:56;;;;;;;21.13;13.20;;;16.90;99.90;;;;;;5059373;28;20052;-67
2023/06/17 06:14:22;;;;;;;18.17;14.00;;;16.90;99.90;;;;;;5021478;28;20044;-66
2023/06/17 06:16:47;;;;;;;18.63;13.23;;;16.90;99.90;;;;;;5051995;28;20400;-67
2023/06/17 06:19:13;;;;;;;19.60;13.85;;;16.90;99.90;;;;;;5017960;28;20048;-66
2023/06/17 06:21:39;;;;;;;21.10;13.95;;;17.00;99.90;;;;;;5035291;28;20041;-67
2023/06/17 06:24:05;;;;;;;19.40;14.73;;;17.00;99.90;;;;;;5014104;28;20053;-66
2023/06/17 06:26:31;;;;;;;21.73;14.82;;;16.90;99.90;;;;;;5048815;28;20041;-66
2023/06/17 06:28:57;;;;;;;18.88;13.75;;;16.90;99.90;;;;;;5016600;28;20049;-66
2023/06/17 06:31:22;;;;;;;26.17;15.35;;;17.00;99.90;;;;;;5017411;28;20117;-66
2023/06/17 06:33:48;;;;;;;21.15;14.27;;;17.00;99.90;;;;;;5052269;28;20041;-66
2023/06/17 06:36:14;;;;;;;20.50;14.10;;;17.10;99.90;;;;;;5034414;28;20045;-67
2023/06/17 06:38:40;;;;;;;21.48;15.45;;;17.10;99.90;;;;;;5051575;28;20044;-67
2023/06/17 06:41:05;;;;;;;20.17;14.77;;;17.20;99.90;;;;;;5017612;28;20045;-66
2023/06/17 06:43:31;;;;;;;23.02;15.20;;;17.20;99.90;;;;;;5052764;28;20113;-66
2023/06/17 06:45:57;;;;;;;23.65;15.05;;;17.30;99.90;;;;;;5033276;28;20045;-66
2023/06/17 06:48:22;;;;;;;16.63;14.57;;;17.40;99.90;;;;;;5051978;28;20041;-66
2023/06/17 06:50:48;;;;;;;21.85;14.27;;;17.30;99.90;;;;;;5033317;28;20048;-67
2023/06/17 06:53:14;;;;;;;21.13;14.00;;;17.50;99.90;;;;;;5052863;28;20051;-67
2023/06/17 06:55:40;;;;;;;20.55;13.80;;;17.70;99.90;;;;;;5051168;28;20041;-67
2023/06/17 06:58:05;;;;;;;22.50;13.90;;;17.80;99.90;;;;;;4981238;28;20051;-67
2023/06/17 07:00:31;;;;;;;18.40;13.50;;;17.90;99.90;;;;;;5033619;28;20128;-67
2023/06/17 07:02:57;;;;;;;20.17;13.60;;;18.10;99.90;;;;;;5053627;28;20045;-67
2023/06/17 07:05:22;;;;;;;19.85;13.65;;;18.20;99.90;;;;;;5032286;28;20143;-67
2023/06/17 07:07:48;;;;;;;17.92;13.32;;;18.20;99.90;;;;;;5070222;28;20371;-69
2023/06/17 07:10:14;;;;;;;18.67;13.82;;;18.30;99.90;;;;;;5042131;28;20045;-67
2023/06/17 07:12:41;;;;;;;19.23;13.85;;;18.30;99.90;;;;;;5070627;28;20128;-67
2023/06/17 07:15:07;;;;;;;19.75;13.38;;;18.30;99.90;;;;;;5061518;28;20114;-66
2023/06/17 07:17:33;;;;;;;17.58;13.57;;;18.40;99.90;;;;;;5054415;28;20387;-67
2023/06/17 07:19:59;;;;;;;17.63;12.73;;;18.50;99.90;;;;;;5055423;28;20070;-68
2023/06/17 07:22:25;;;;;;;22.40;13.35;;;18.60;99.90;;;;;;5051108;28;20044;-67
2023/06/17 07:24:50;;;;;;;15.63;12.13;;;18.90;99.90;;;;;;5050983;28;20094;-68
2023/06/17 07:27:16;;;;;;;19.60;12.77;;;19.70;99.90;;;;;;5033016;28;20047;-67
2023/06/17 07:29:42;;;;;;;16.90;11.57;;;20.40;99.90;;;;;;5033418;28;20428;-68
2023/06/17 07:32:08;;;;;;;17.38;11.93;;;20.60;99.90;;;;;;5050338;28;20076;-68
2023/06/17 07:34:34;;;;;;;15.48;11.95;;;20.70;99.90;;;;;;5051103;28;20076;-68
2023/06/17 07:37:00;;;;;;;15.68;12.00;;;20.60;99.90;;;;;;5043989;28;20371;-69
2023/06/17 07:39:26;;;;;;;17.58;11.68;;;20.50;99.90;;;;;;5027570;28;20036;-68
2023/06/17 07:41:51;;;;;;;16.05;12.18;;;20.30;99.90;;;;;;5053537;28;20113;-68
2023/06/17 07:44:17;;;;;;;15.13;11.73;;;20.40;99.90;;;;;;5036470;28;20045;-68
2023/06/17 07:46:43;;;;;;;17.42;11.45;;;20.70;99.90;;;;;;5049690;28;20047;-68
2023/06/17 07:49:09;;;;;;;15.07;11.45;;;21.00;99.90;;;;;;5053162;28;20045;-68
2023/06/17 07:51:36;;;;;;;13.10;10.75;;;21.80;99.90;;;;;;5020461;28;20052;-68
2023/06/17 07:54:05;;;;;;;15.88;11.20;;;22.70;99.90;;;;;;5016608;28;20048;-67
2023/06/17 07:56:31;;;;;;;14.23;10.30;;;23.60;99.90;;;;;;5033744;28;20506;-68
2023/06/17 07:58:56;;;;;;;14.02;9.70;;;24.30;99.90;;;;;;5026601;28;20029;-70
2023/06/17 08:01:22;;;;;;;13.75;9.98;;;24.50;99.90;;;;;;5012958;28;20045;-68
2023/06/17 08:03:48;;;;;;;13.85;9.73;;;24.90;99.90;;;;;;5029933;28;20155;-69
2023/06/17 08:06:14;;;;;;;14.07;9.20;;;25.40;99.70;;;;;;5019156;28;20120;-69
2023/06/17 08:08:41;;;;;;;12.75;8.75;;;25.80;99.50;;;;;;5026468;28;20344;-69
2023/06/17 08:11:07;;;;;;;11.80;8.60;;;26.10;98.40;;;;;;5049670;28;20056;-69
2023/06/17 08:13:32;;;;;;;13.05;9.07;;;26.60;97.90;;;;;;5050905;28;20045;-67
2023/06/17 08:15:58;;;;;;;12.60;8.63;;;27.00;96.90;;;;;;5035175;28;20045;-70
2023/06/17 08:18:24;;;;;;;12.02;8.07;;;27.30;96.20;;;;;;5051887;28;20033;-68
2023/06/17 08:20:50;;;;;;;15.55;8.23;;;27.60;96.00;;;;;;5029986;28;20038;-66
2023/06/17 08:23:15;;;;;;;12.05;7.93;;;27.60;95.40;;;;;;5025205;28;20112;-68
2023/06/17 08:25:41;;;;;;;11.95;8.00;;;27.80;94.90;;;;;;5016896;28;20072;-68
2023/06/17 08:28:08;;;;;;;10.48;7.43;;;27.80;94.60;;;;;;5035414;28;20459;-67
2023/06/17 08:30:33;;;;;;;13.90;8.10;;;27.80;94.50;;;;;;5038189;28;20494;-67
2023/06/17 08:32:59;;;;;;;10.63;7.30;;;27.90;94.70;;;;;;5053477;28;20041;-70
2023/06/17 08:35:25;;;;;;;13.07;7.68;;;27.80;94.50;;;;;;5042358;28;20075;-68
2023/06/17 08:37:50;;;;;;;12.05;7.75;;;27.60;94.00;;;;;;5054027;28;20045;-68
2023/06/17 08:40:18;;;;;;;12.07;7.32;;;27.80;94.40;;;;;;5036265;28;20368;-68
2023/06/17 08:42:44;;;;;;;14.13;7.93;;;27.70;94.40;;;;;;5020488;28;20053;-69
2023/06/17 08:45:10;;;;;;;16.30;9.13;;;27.50;94.70;;;;;;5053793;28;20045;-68
2023/06/17 08:47:36;;;;;;;14.82;8.73;;;27.50;94.90;;;;;;5053928;28;20057;-67
2023/06/17 08:50:03;;;;;;;12.93;7.82;;;27.40;94.50;;;;;;5036612;28;20456;-71
2023/06/17 08:52:33;;;;;;;11.32;7.30;;;27.80;94.30;;;;;;5015045;28;20056;-68
2023/06/17 08:54:59;;;;;;;10.73;7.50;;;28.10;93.90;;;;;;5050045;28;20044;-72
2023/06/17 08:57:27;;;;;;;13.40;8.30;;;28.00;94.00;;;;;;5052603;28;20040;-73
2023/06/17 08:59:53;;;;;;;14.05;7.95;;;28.10;93.90;;;;;;5036204;28;20061;-74
2023/06/17 09:02:21;;;;;;;13.55;8.40;;;28.30;94.10;;;;;;5031769;28;20060;-74
2023/06/17 09:04:46;;;;;;;11.05;7.80;;;28.30;93.60;;;;;;5034077;28;20052;-74
2023/06/17 09:07:12;;;;;;;14.32;8.10;;;28.40;93.60;;;;;;5053077;28;20056;-77
2023/06/17 09:09:38;;;;;;;12.05;7.43;;;28.40;93.90;;;;;;5034821;28;20053;-73
2023/06/17 09:12:05;;;;;;;11.63;7.18;;;28.50;93.80;;;;;;5019831;28;20051;-72
2023/06/17 09:14:32;;;;;;;11.15;7.15;;;28.70;93.60;;;;;;5035607;28;20037;-71
2023/06/17 09:16:58;;;;;;;13.25;8.45;;;29.00;93.50;;;;;;5035435;28;20043;-72
2023/06/17 09:19:24;;;;;;;10.98;7.32;;;28.90;93.40;;;;;;5035124;28;20041;-72
2023/06/17 09:21:50;;;;;;;14.32;7.65;;;29.10;93.10;;;;;;5018816;28;20068;-72
2023/06/17 09:24:16;;;;;;;12.07;7.38;;;29.20;93.20;;;;;;5052924;28;20045;-70
2023/06/17 09:26:44;;;;;;;11.65;6.95;;;29.40;92.80;;;;;;5052331;28;20052;-70
2023/06/17 09:29:12;;;;;;;12.75;7.82;;;29.50;92.80;;;;;;5034844;28;20390;-67
2023/06/17 09:31:51;;;;;;;11.48;7.00;;;29.50;92.70;;;;;;5036435;28;20049;-68
2023/06/17 09:34:18;;;;;;;11.35;7.25;;;29.40;92.20;;;;;;5051019;28;20136;-70
2023/06/17 09:36:44;;;;;;;10.30;7.00;;;29.30;92.50;;;;;;5035195;28;20557;-70
2023/06/17 09:39:12;;;;;;;12.73;7.25;;;29.30;92.40;;;;;;5051960;28;20098;-70
2023/06/17 09:41:42;;;;;;;13.07;6.78;;;29.20;92.50;;;;;;5036691;28;20049;-70
2023/06/17 09:44:08;;;;;;;11.60;7.72;;;29.40;92.40;;;;;;5034850;28;20120;-71
2023/06/17 09:46:39;;;;;;;11.13;7.32;;;29.30;92.50;;;;;;5052825;28;20049;-69
2023/06/17 09:49:12;;;;;;;9.60;7.20;;;29.30;92.50;;;;;;5034934;28;20173;-70
2023/06/17 09:51:39;;;;;;;11.65;6.90;;;29.40;92.90;;;;;;5051426;28;20056;-70
2023/06/17 09:54:06;;;;;;;12.88;7.35;;;29.90;92.80;;;;;;5053455;28;20400;-68
2023/06/17 09:56:33;;;;;;;12.63;7.82;;;30.00;92.40;;;;;;5051962;28;20045;-68
2023/06/17 09:58:59;;;;;;;11.18;6.65;;;29.70;92.10;;;;;;5018435;28;20426;-68
2023/06/17 10:01:30;;;;;;;11.75;6.88;;;29.90;92.20;;;;;;5052091;28;20041;-68
2023/06/17 10:04:00;;;;;;;11.30;7.03;;;30.00;91.90;;;;;;5039735;28;20127;-68
2023/06/17 10:06:29;;;;;;;13.60;8.10;;;30.00;91.70;;;;;;5052425;28;20041;-73
2023/06/17 10:08:56;;;;;;;12.27;6.97;;;29.80;91.40;;;;;;5053431;28;20041;-71
2023/06/17 10:11:23;;;;;;;13.45;6.78;;;29.50;91.80;;;;;;5033814;28;20127;-71
2023/06/17 10:14:07;;;;;;;13.30;7.68;;;29.50;91.80;;;;;;5001357;28;20047;-70
2023/06/17 10:16:42;;;;;;;9.60;7.18;;;29.20;92.00;;;;;;5033801;28;20179;-69
2023/06/17 10:19:10;;;;;;;17.92;8.63;;;28.90;92.00;;;;;;5056093;28;20051;-68
2023/06/17 10:21:39;;;;;;;14.07;7.75;;;28.40;92.50;;;;;;5022958;28;20560;-69
2023/06/17 10:24:05;;;;;;;15.30;8.30;;;28.30;92.60;;;;;;5034256;28;20150;-68
2023/06/17 10:26:32;;;;;;;13.32;7.95;;;28.20;92.60;;;;;;5050441;28;20391;-68
2023/06/17 10:29:01;;;;;;;12.77;8.32;;;28.00;92.90;;;;;;5023672;28;20037;-68
2023/06/17 10:31:29;;;;;;;12.35;7.80;;;27.90;92.90;;;;;;5010965;28;20049;-68
2023/06/17 10:33:57;;;;;;;12.82;7.68;;;27.80;93.40;;;;;;5034019;28;20103;-67
2023/06/17 10:36:24;;;;;;;13.52;7.97;;;27.80;93.50;;;;;;5000703;28;20132;-69
2023/06/17 10:39:11;;;;;;;10.30;7.32;;;27.80;93.30;;;;;;5051652;28;20466;-68
2023/06/17 10:41:39;;;;;;;10.23;7.50;;;28.00;92.80;;;;;;5033365;28;20120;-68
2023/06/17 10:44:20;;;;;;;11.70;6.65;;;28.00;92.30;;;;;;5033671;28;20067;-71
2023/06/17 10:46:50;;;;;;;10.82;6.93;;;28.20;92.40;;;;;;5034245;28;20048;-71
2023/06/17 10:49:17;;;;;;;14.10;8.30;;;28.20;93.10;;;;;;5055192;28;20398;-70
2023/06/17 10:51:50;;;;;;;10.85;7.75;;;27.80;93.20;;;;;;5050330;28;20123;-73
2023/06/17 10:54:30;;;;;;;13.48;7.68;;;27.40;93.40;;;;;;5051394;28;20060;-70
2023/06/17 10:56:56;;;;;;;11.25;7.22;;;27.10;93.90;;;;;;5029443;28;20048;-70
2023/06/17 10:59:28;;;;;;;13.02;7.15;;;27.00;93.90;;;;;;5033494;28;20478;-70
2023/06/17 11:02:08;;;;;;;13.30;8.23;;;27.20;93.70;;;;;;5037319;28;20086;-69
2023/06/17 11:04:40;;;;;;;10.43;6.80;;;27.00;93.30;;;;;;5033363;28;20517;-69
2023/06/17 11:07:07;;;;;;;15.68;6.90;;;27.30;93.30;;;;;;5017061;28;20056;-71
2023/06/17 11:09:34;;;;;;;12.77;6.90;;;27.40;93.00;;;;;;5031887;28;20065;-73
2023/06/17 11:12:03;;;;;;;12.63;7.35;;;27.60;93.40;;;;;;5020782;28;20049;-73
2023/06/17 11:14:32;;;;;;;12.38;7.40;;;27.70;93.40;;;;;;5029897;28;20097;-73
2023/06/17 11:16:57;;;;;;;9.40;6.82;;;27.50;93.20;;;;;;5030470;28;20069;-73
2023/06/17 11:19:24;;;;;;;11.55;6.70;;;27.40;93.50;;;;;;5038952;28;20471;-74
2023/06/17 11:22:07;;;;;;;11.65;6.32;;;27.40;93.60;;;;;;5011806;28;20041;-74
2023/06/17 11:24:34;;;;;;;10.45;6.63;;;27.50;93.70;;;;;;4985001;28;20052;-74
2023/06/17 11:27:01;;;;;;;13.73;6.93;;;27.40;93.60;;;;;;5038532;28;20144;-70
2023/06/17 11:29:28;;;;;;;10.13;7.05;;;27.30;93.60;;;;;;5005808;28;20045;-71
2023/06/17 11:31:58;;;;;;;11.30;6.80;;;27.10;93.80;;;;;;5031636;28;20046;-70
2023/06/17 11:34:24;;;;;;;10.10;6.50;;;27.00;93.90;;;;;;5029971;28;20125;-75
2023/06/17 11:36:52;;;;;;;13.88;6.38;;;27.00;93.90;;;;;;5021117;28;20056;-70
2023/06/17 11:39:27;;;;;;;12.18;6.55;;;27.00;93.80;;;;;;5049762;28;20174;-69
2023/06/17 11:41:59;;;;;;;13.00;7.50;;;27.20;93.90;;;;;;5050612;28;20114;-70
2023/06/17 11:44:25;;;;;;;11.43;7.30;;;27.40;93.60;;;;;;5046305;28;20061;-76
2023/06/17 11:46:54;;;;;;;12.75;7.10;;;27.40;93.70;;;;;;5031974;28;20053;-70
2023/06/17 11:49:24;;;;;;;10.48;6.65;;;27.30;93.30;;;;;;5032466;28;20064;-70
2023/06/17 11:51:50;;;;;;;11.15;6.50;;;27.10;93.40;;;;;;5044996;28;20106;-70
2023/06/17 11:54:18;;;;;;;11.98;6.53;;;27.10;93.70;;;;;;5030096;28;20045;-70
2023/06/17 11:56:44;;;;;;;11.57;6.47;;;27.30;93.50;;;;;;5029182;28;20077;-72
2023/06/17 11:59:11;;;;;;;9.95;6.47;;;27.20;93.50;;;;;;5030698;28;20084;-69
2023/06/17 12:01:37;;;;;;;12.90;7.13;;;27.30;93.40;;;;;;5031164;28;20045;-70
2023/06/17 12:04:03;;;;;;;10.88;6.15;;;27.30;93.20;;;;;;5041542;28;20037;-71
2023/06/17 12:06:31;;;;;;;13.02;6.40;;;27.20;93.10;;;;;;5033416;28;20049;-73
2023/06/17 12:09:06;;;;;;;12.50;6.65;;;27.00;93.30;;;;;;5033627;28;20037;-70
2023/06/17 12:11:35;;;;;;;14.35;6.40;;;26.90;94.00;;;;;;5014497;28;20089;-71
2023/06/17 12:14:07;;;;;;;9.98;6.55;;;26.90;93.70;;;;;;5019109;28;20124;-70
2023/06/17 12:16:35;;;;;;;11.27;6.13;;;27.10;93.60;;;;;;5028318;28;20121;-71
2023/06/17 12:19:04;;;;;;;13.88;6.85;;;27.10;93.70;;;;;;5024743;28;20049;-71
2023/06/17 12:21:30;;;;;;;16.30;7.18;;;26.90;93.50;;;;;;4997929;28;20054;-76
2023/06/17 12:23:56;;;;;;;11.40;6.05;;;26.80;93.80;;;;;;4998233;28;20054;-73
2023/06/17 12:26:25;;;;;;;13.80;6.80;;;26.60;94.10;;;;;;5014330;28;20053;-73
2023/06/17 12:28:55;;;;;;;10.60;6.95;;;26.70;94.60;;;;;;4997437;28;20046;-73
2023/06/17 12:31:21;;;;;;;11.63;7.10;;;26.90;94.70;;;;;;5013540;28;20145;-71